createdAt,value
2023-01-07T00:02:21.848Z,9.30
2023-01-07T00:04:52.991Z,8.75
2023-01-07T00:07:22.408Z,9.25
2023-01-07T00:09:52.089Z,9.38
2023-01-07T00:12:21.427Z,10.13
2023-01-07T00:14:51.064Z,10.68
2023-01-07T00:17:20.327Z,9.10
2023-01-07T00:19:50.056Z,8.48
2023-01-07T00:22:21.259Z,7.88
2023-01-07T00:24:51.417Z,8.50
2023-01-07T00:27:20.788Z,8.43
2023-01-07T00:29:50.402Z,6.88
2023-01-07T00:32:19.702Z,7.55
2023-01-07T00:34:49.499Z,9.38
2023-01-07T00:37:33.963Z,7.00
2023-01-07T00:40:03.657Z,7.95
2023-01-07T00:42:50.235Z,6.18
2023-01-07T00:45:19.871Z,6.30
2023-01-07T00:47:49.180Z,5.95
2023-01-07T00:50:19.015Z,6.45
2023-01-07T00:52:49.879Z,5.85
2023-01-07T00:55:20.393Z,5.70
2023-01-07T00:57:49.659Z,6.40
2023-01-07T01:00:21.404Z,5.78
2023-01-07T01:02:51.524Z,4.88
2023-01-07T01:05:22.194Z,5.60
2023-01-07T01:07:53.263Z,4.83
2023-01-07T01:10:23.039Z,7.07
2023-01-07T01:12:52.336Z,5.95
2023-01-07T01:15:22.871Z,6.68
2023-01-07T01:17:53.665Z,6.90
2023-01-07T01:20:23.554Z,6.85
2023-01-07T01:22:54.499Z,6.65
2023-01-07T01:25:24.271Z,6.00
2023-01-07T01:27:53.742Z,7.28
2023-01-07T01:30:23.427Z,7.07
2023-01-07T01:32:52.686Z,5.45
2023-01-07T01:35:22.371Z,5.85
2023-01-07T01:37:51.642Z,6.05
2023-01-07T01:40:22.851Z,6.22
2023-01-07T01:42:52.094Z,6.25
2023-01-07T01:45:22.053Z,6.65
2023-01-07T01:47:54.380Z,6.30
2023-01-07T01:50:27.820Z,5.75
2023-01-07T01:52:59.771Z,5.50
2023-01-07T01:55:36.768Z,6.40
2023-01-07T01:58:09.841Z,6.93
2023-01-07T02:00:40.282Z,6.53
2023-01-07T02:03:13.366Z,7.10
2023-01-07T02:05:44.166Z,7.40
2023-01-07T02:08:15.370Z,6.13
2023-01-07T02:10:46.534Z,5.53
2023-01-07T02:13:36.256Z,4.57
2023-01-07T02:16:14.019Z,7.15
2023-01-07T02:19:06.846Z,6.63
2023-01-07T02:21:47.482Z,6.78
2023-01-07T02:24:44.894Z,5.57
2023-01-07T02:27:41.242Z,6.75
2023-01-07T02:30:43.301Z,6.03
2023-01-07T02:33:35.684Z,6.45
2023-01-07T02:36:25.361Z,6.93
2023-01-07T02:39:05.817Z,7.07
2023-01-07T02:41:45.718Z,6.35
2023-01-07T02:44:24.571Z,6.32
2023-01-07T02:47:00.124Z,7.63
2023-01-07T02:49:31.348Z,6.30
2023-01-07T02:52:18.341Z,6.60
2023-01-07T02:54:55.207Z,7.20
2023-01-07T02:57:45.084Z,7.28
2023-01-07T03:00:34.124Z,6.53
2023-01-07T03:03:19.112Z,5.68
2023-01-07T03:06:01.340Z,6.10
2023-01-07T03:08:59.024Z,7.30
2023-01-07T03:11:42.805Z,6.97
2023-01-07T03:14:19.560Z,5.88
2023-01-07T03:16:55.834Z,6.45
2023-01-07T03:19:29.923Z,5.55
2023-01-07T03:22:03.270Z,5.65
2023-01-07T03:24:34.450Z,6.70
2023-01-07T03:27:07.709Z,5.50
2023-01-07T03:29:38.489Z,5.57
2023-01-07T03:32:15.031Z,5.97
2023-01-07T03:34:45.078Z,6.20
2023-01-07T03:37:18.676Z,5.03
2023-01-07T03:39:49.086Z,6.03
2023-01-07T03:42:40.941Z,6.22
2023-01-07T03:47:48.205Z,5.93
2023-01-07T03:50:18.411Z,5.25
2023-01-07T03:52:51.181Z,7.25
2023-01-07T03:55:20.884Z,6.18
2023-01-07T03:57:50.532Z,5.60
2023-01-07T04:00:20.275Z,5.40
2023-01-07T04:02:50.399Z,7.03
2023-01-07T04:05:19.811Z,5.57
2023-01-07T04:07:51.097Z,5.53
2023-01-07T04:10:20.894Z,6.75
2023-01-07T04:12:50.581Z,6.00
2023-01-07T04:15:20.500Z,6.18
2023-01-07T04:17:50.239Z,7.80
2023-01-07T04:20:19.656Z,6.18
2023-01-07T04:22:50.865Z,6.35
2023-01-07T04:25:20.149Z,6.65
2023-01-07T04:27:49.822Z,6.80
2023-01-07T04:30:19.184Z,6.43
2023-01-07T04:32:48.817Z,6.43
2023-01-07T04:35:18.184Z,6.50
2023-01-07T04:37:47.831Z,7.40
2023-01-07T04:40:19.569Z,7.38
2023-01-07T04:42:49.211Z,7.53
2023-01-07T04:45:18.660Z,7.25
2023-01-07T04:47:48.311Z,8.50
2023-01-07T04:50:17.836Z,6.10
2023-01-07T04:52:48.426Z,7.72
2023-01-07T04:55:19.805Z,6.32
2023-01-07T04:57:49.954Z,7.15
2023-01-07T05:00:19.348Z,6.35
2023-01-07T05:02:48.981Z,6.05
2023-01-07T05:05:18.359Z,6.07
2023-01-07T05:07:48.045Z,5.80
2023-01-07T05:10:18.884Z,6.85
2023-01-07T05:12:48.515Z,5.82
2023-01-07T05:15:17.945Z,6.57
2023-01-07T05:17:47.626Z,6.47
2023-01-07T05:20:17.017Z,5.53
2023-01-07T05:22:46.765Z,6.15
2023-01-07T05:25:16.455Z,5.80
2023-01-07T05:27:47.988Z,5.97
2023-01-07T05:30:17.459Z,7.35
2023-01-07T05:32:47.128Z,6.03
2023-01-07T05:35:16.496Z,6.22
2023-01-07T05:37:47.263Z,6.77
2023-01-07T05:40:17.258Z,6.10
2023-01-07T05:42:48.744Z,6.35
2023-01-07T05:45:18.794Z,6.35
2023-01-07T05:47:48.650Z,5.70
2023-01-07T05:50:18.247Z,6.28
2023-01-07T05:52:47.956Z,6.15
2023-01-07T05:55:17.482Z,5.68
2023-01-07T05:57:48.588Z,5.90
2023-01-07T06:00:18.883Z,6.60
2023-01-07T06:02:48.586Z,6.25
2023-01-07T06:05:19.785Z,5.90
2023-01-07T06:07:49.799Z,6.47
2023-01-07T06:10:19.764Z,6.38
2023-01-07T06:12:51.644Z,6.38
2023-01-07T06:15:20.951Z,5.93
2023-01-07T06:17:50.596Z,6.38
2023-01-07T06:20:20.115Z,5.78
2023-01-07T06:22:49.837Z,6.43
2023-01-07T06:25:19.472Z,6.13
2023-01-07T06:27:50.602Z,6.05
2023-01-07T06:30:20.063Z,6.32
2023-01-07T06:32:49.701Z,6.57
2023-01-07T06:35:19.299Z,5.45
2023-01-07T06:37:49.174Z,5.20
2023-01-07T06:40:18.688Z,6.45
2023-01-07T06:42:48.311Z,6.20
2023-01-07T06:45:19.239Z,5.80
2023-01-07T06:47:49.668Z,5.90
2023-01-07T06:50:19.763Z,6.05
2023-01-07T06:52:49.572Z,6.35
2023-01-07T06:55:18.975Z,8.77
2023-01-07T06:57:48.615Z,9.57
2023-01-07T07:00:19.814Z,6.80
2023-01-07T07:02:49.515Z,6.43
2023-01-07T07:05:19.027Z,7.40
2023-01-07T07:07:48.810Z,8.02
2023-01-07T07:10:18.170Z,7.43
2023-01-07T07:12:47.787Z,7.43
2023-01-07T07:15:18.951Z,9.82
2023-01-07T07:17:48.943Z,8.02
2023-01-07T07:20:18.351Z,7.15
2023-01-07T07:22:49.344Z,6.28
2023-01-07T07:25:19.003Z,5.75
2023-01-07T07:27:49.239Z,5.77
2023-01-07T07:30:20.714Z,6.90
2023-01-07T07:32:50.389Z,6.30
2023-01-07T07:35:19.830Z,4.78
2023-01-07T07:37:50.031Z,6.70
2023-01-07T07:40:19.624Z,5.03
2023-01-07T07:43:11.163Z,4.88
2023-01-07T07:45:40.463Z,5.65
2023-01-07T07:48:10.963Z,6.18
2023-01-07T07:50:40.343Z,6.10
2023-01-07T07:53:10.674Z,6.10
2023-01-07T07:55:40.525Z,4.97
2023-01-07T07:58:10.190Z,6.80
2023-01-07T08:00:41.276Z,6.00
2023-01-07T08:03:11.975Z,6.88
2023-01-07T08:05:43.967Z,6.65
2023-01-07T08:08:15.730Z,6.07
2023-01-07T08:10:45.310Z,8.27
2023-01-07T08:13:14.938Z,7.40
2023-01-07T08:15:45.785Z,6.30
2023-01-07T08:18:15.399Z,6.95
2023-01-07T08:20:44.759Z,6.13
2023-01-07T08:23:14.995Z,6.38
2023-01-07T08:25:44.648Z,5.82
2023-01-07T08:28:14.807Z,5.30
2023-01-07T08:30:46.334Z,4.80
2023-01-07T08:33:16.122Z,5.30
2023-01-07T08:35:46.874Z,5.88
2023-01-07T08:38:16.660Z,5.40
2023-01-07T08:40:45.931Z,4.18
2023-01-07T08:43:15.758Z,4.78
2023-01-07T08:45:50.230Z,4.00
2023-01-07T08:48:19.933Z,3.83
2023-01-07T08:50:52.473Z,3.85
2023-01-07T08:53:22.578Z,3.42
2023-01-07T08:55:52.104Z,3.65
2023-01-07T08:58:21.872Z,4.05
2023-01-07T09:00:52.795Z,3.90
2023-01-07T09:03:22.619Z,5.43
2023-01-07T09:05:52.538Z,5.55
2023-01-07T09:08:22.333Z,5.85
2023-01-07T09:10:51.796Z,5.25
2023-01-07T09:13:21.526Z,4.65
2023-01-07T09:15:53.367Z,5.07
2023-01-07T09:18:23.250Z,5.38
2023-01-07T09:20:52.651Z,5.65
2023-01-07T09:23:22.295Z,6.32
2023-01-07T09:25:51.705Z,6.38
2023-01-07T09:28:21.341Z,6.53
2023-01-07T09:30:52.277Z,5.85
2023-01-07T09:33:21.994Z,6.57
2023-01-07T09:35:51.270Z,6.13
2023-01-07T09:38:21.102Z,7.15
2023-01-07T09:40:51.253Z,8.55
2023-01-07T09:44:00.533Z,8.07
2023-01-07T09:46:20.034Z,7.80
2023-01-07T09:48:54.388Z,7.40
2023-01-07T09:51:28.015Z,7.57
2023-01-07T09:54:00.257Z,6.97
2023-01-07T09:56:31.622Z,7.28
2023-01-07T09:59:02.812Z,7.25
2023-01-07T10:01:39.815Z,7.07
2023-01-07T10:04:27.319Z,7.10
2023-01-07T10:07:05.672Z,6.70
2023-01-07T10:09:44.707Z,6.20
2023-01-07T10:12:23.856Z,7.15
2023-01-07T10:15:17.200Z,6.47
2023-01-07T10:18:02.385Z,6.22
2023-01-07T10:20:41.407Z,7.55
2023-01-07T10:23:13.912Z,6.57
2023-01-07T10:25:47.435Z,6.80
2023-01-07T10:28:23.920Z,7.03
2023-01-07T10:30:54.003Z,6.88
2023-01-07T10:33:27.171Z,6.95
2023-01-07T10:36:21.535Z,6.78
2023-01-07T10:39:09.510Z,8.25
2023-01-07T10:41:57.322Z,9.50
2023-01-07T10:44:56.227Z,9.50
2023-01-07T10:47:41.619Z,8.85
2023-01-07T10:50:27.743Z,8.85
2023-01-07T10:53:05.509Z,8.40
2023-01-07T10:55:47.796Z,9.23
2023-01-07T10:58:17.506Z,8.38
2023-01-07T11:00:49.116Z,9.50
2023-01-07T11:03:23.246Z,8.65
2023-01-07T11:05:58.557Z,8.10
2023-01-07T11:08:31.618Z,8.05
2023-01-07T11:11:01.226Z,8.65
2023-01-07T11:13:33.614Z,9.55
2023-01-07T11:16:10.400Z,8.00
2023-01-07T11:18:50.336Z,8.30
2023-01-07T11:21:44.416Z,8.82
2023-01-07T11:24:31.635Z,7.85
2023-01-07T11:27:04.396Z,9.88
2023-01-07T11:29:40.300Z,7.95
2023-01-07T11:32:22.438Z,9.57
2023-01-07T11:34:59.917Z,8.55
2023-01-07T11:37:40.182Z,8.73
2023-01-07T11:42:53.401Z,15.30
2023-01-07T11:45:25.752Z,11.07
2023-01-07T11:48:02.079Z,10.02
2023-01-07T11:50:37.714Z,10.93
2023-01-07T11:53:24.462Z,11.18
2023-01-07T11:56:01.928Z,12.80
2023-01-07T11:58:32.972Z,11.70
2023-01-07T12:01:14.029Z,11.45
2023-01-07T12:03:46.031Z,9.93
2023-01-07T12:06:20.720Z,9.80
2023-01-07T12:08:58.081Z,12.63
2023-01-07T12:11:33.293Z,9.35
2023-01-07T12:14:09.311Z,9.82
2023-01-07T12:16:39.436Z,9.05
2023-01-07T12:19:23.684Z,8.75
2023-01-07T12:22:03.653Z,9.65
2023-01-07T12:24:59.571Z,8.40
2023-01-07T12:27:37.349Z,11.77
2023-01-07T12:30:25.239Z,8.85
2023-01-07T12:33:01.889Z,10.50
2023-01-07T12:35:34.892Z,10.02
2023-01-07T12:38:12.158Z,9.40
2023-01-07T12:40:46.891Z,10.68
2023-01-07T12:43:22.969Z,8.43
2023-01-07T12:45:57.661Z,8.48
2023-01-07T12:51:17.306Z,9.80
2023-01-07T12:53:52.250Z,10.90
2023-01-07T12:56:29.079Z,10.23
2023-01-07T12:59:03.392Z,8.32
2023-01-07T13:01:36.477Z,8.75
2023-01-07T13:04:15.087Z,8.57
2023-01-07T13:06:49.923Z,8.73
2023-01-07T13:09:26.440Z,8.43
2023-01-07T13:18:15.189Z,8.18
2023-01-07T13:21:00.722Z,8.57
2023-01-07T13:23:56.145Z,9.50
2023-01-07T13:26:41.239Z,9.27
2023-01-07T13:29:23.315Z,8.50
2023-01-07T13:32:17.156Z,9.40
2023-01-07T13:35:00.773Z,10.23
2023-01-07T13:37:56.045Z,9.52
2023-01-07T13:40:41.999Z,11.88
2023-01-07T13:43:23.356Z,11.52
2023-01-07T13:45:58.484Z,13.43
2023-01-07T13:48:29.982Z,13.68
2023-01-07T13:51:02.755Z,13.77
2023-01-07T13:53:47.463Z,11.52
2023-01-07T13:56:35.350Z,14.10
2023-01-07T13:59:06.075Z,12.73
2023-01-07T14:01:56.367Z,13.32
2023-01-07T14:04:37.039Z,13.98
2023-01-07T14:07:08.950Z,13.50
2023-01-07T14:09:40.319Z,15.45
2023-01-07T14:15:45.469Z,14.52
2023-01-07T14:18:53.501Z,15.20
2023-01-07T14:21:44.862Z,15.13
2023-01-07T14:24:32.680Z,14.80
2023-01-07T14:27:17.316Z,15.90
2023-01-07T14:29:49.686Z,13.52
2023-01-07T14:32:28.575Z,14.18
2023-01-07T14:35:08.234Z,15.05
2023-01-07T14:37:40.162Z,16.73
2023-01-07T14:41:00.987Z,15.27
2023-01-07T14:44:03.832Z,16.23
2023-01-07T14:46:48.616Z,15.57
2023-01-07T14:49:59.682Z,16.45
2023-01-07T14:53:04.977Z,17.15
2023-01-07T14:56:16.099Z,16.92
2023-01-07T14:59:10.595Z,19.03
2023-01-07T15:02:07.904Z,17.45
2023-01-07T15:05:13.458Z,15.65
2023-01-07T15:07:44.188Z,16.42
2023-01-07T15:10:39.034Z,17.10
2023-01-07T15:13:30.671Z,22.73
2023-01-07T15:18:36.591Z,21.15
2023-01-07T15:21:19.324Z,24.63
2023-01-07T15:23:57.819Z,22.27
2023-01-07T15:26:36.818Z,22.30
2023-01-07T15:29:15.679Z,23.42
2023-01-07T15:31:50.400Z,22.42
2023-01-07T15:34:21.862Z,23.80
2023-01-07T15:36:53.802Z,23.38
2023-01-07T15:39:25.755Z,23.98
2023-01-07T15:41:56.412Z,26.98
2023-01-07T15:46:58.899Z,21.38
2023-01-07T15:49:29.808Z,19.92
2023-01-07T15:52:02.370Z,21.08
2023-01-07T15:54:37.033Z,20.42
2023-01-07T15:57:11.928Z,21.17
2023-01-07T15:59:46.503Z,21.70
2023-01-07T16:02:23.852Z,21.77
2023-01-07T16:04:55.922Z,18.17
2023-01-07T16:07:30.170Z,13.52
2023-01-07T16:10:01.054Z,12.43
2023-01-07T16:12:33.005Z,12.02
2023-01-07T16:15:04.848Z,11.98
2023-01-07T16:17:36.147Z,12.60
2023-01-07T16:20:14.690Z,15.85
2023-01-07T16:22:45.980Z,15.85
2023-01-07T16:25:23.744Z,18.98
2023-01-07T16:27:53.333Z,18.13
2023-01-07T16:30:23.262Z,19.13
2023-01-07T16:32:54.868Z,18.48
2023-01-07T16:35:30.218Z,19.40
2023-01-07T16:38:03.430Z,17.55
2023-01-07T16:40:37.479Z,17.98
2023-01-07T16:43:27.334Z,19.02
2023-01-07T16:46:16.253Z,20.70
2023-01-07T16:48:45.766Z,17.67
2023-01-07T16:51:38.787Z,19.35
2023-01-07T16:54:31.938Z,18.60
2023-01-07T16:57:03.150Z,19.90
2023-01-07T16:59:34.779Z,21.52
2023-01-07T17:02:14.485Z,22.67
2023-01-07T17:04:43.848Z,23.80
2023-01-07T17:07:23.234Z,23.17
2023-01-07T17:09:56.657Z,24.83
2023-01-07T17:12:31.243Z,23.13
2023-01-07T17:15:00.955Z,24.15
2023-01-07T17:17:33.029Z,22.07
2023-01-07T17:20:17.614Z,22.70
2023-01-07T17:22:48.049Z,29.35
2023-01-07T17:25:27.147Z,23.05
2023-01-07T17:28:00.488Z,23.20
2023-01-07T17:30:35.043Z,33.75
2023-01-07T17:33:05.163Z,27.67
2023-01-07T17:35:34.551Z,24.95
2023-01-07T17:38:04.396Z,29.05
2023-01-07T17:40:35.205Z,25.88
2023-01-07T17:43:22.658Z,27.55
2023-01-07T17:45:52.410Z,36.53
2023-01-07T17:48:22.142Z,34.17
2023-01-07T17:50:52.286Z,34.38
2023-01-07T17:53:24.824Z,30.65
2023-01-07T17:55:55.835Z,35.33
2023-01-07T17:58:29.532Z,32.67
2023-01-07T18:01:00.069Z,32.42
2023-01-07T18:05:59.400Z,35.08
2023-01-07T18:08:30.279Z,38.97
2023-01-07T18:11:18.460Z,39.20
2023-01-07T18:13:48.094Z,43.00
2023-01-07T18:16:17.521Z,42.60
2023-01-07T18:18:47.355Z,37.58
2023-01-07T18:21:16.711Z,42.90
2023-01-07T18:23:47.721Z,37.50
2023-01-07T18:26:19.476Z,42.78
2023-01-07T18:28:49.570Z,37.38
2023-01-07T18:31:19.811Z,36.53
2023-01-07T18:33:50.017Z,38.05
2023-01-07T18:36:20.049Z,32.60
2023-01-07T18:38:50.026Z,33.72
2023-01-07T18:41:20.818Z,36.63
2023-01-07T18:43:50.498Z,30.15
2023-01-07T18:46:19.881Z,32.47
2023-01-07T18:48:49.593Z,29.90
2023-01-07T18:51:19.015Z,33.60
2023-01-07T18:53:48.688Z,29.48
2023-01-07T18:56:18.058Z,34.90
2023-01-07T18:58:55.015Z,33.15
2023-01-07T19:01:24.917Z,30.33
2023-01-07T19:03:57.939Z,32.42
2023-01-07T19:06:27.630Z,29.63
2023-01-07T19:08:58.822Z,28.40
2023-01-07T19:11:29.862Z,44.92
2023-01-07T19:14:00.961Z,34.92
2023-01-07T19:16:30.383Z,30.90
2023-01-07T19:19:01.240Z,33.50
2023-01-07T19:21:30.624Z,30.95
2023-01-07T19:24:04.782Z,42.50
2023-01-07T19:26:35.517Z,42.30
2023-01-07T19:31:35.667Z,48.03
2023-01-07T19:34:05.594Z,43.85
2023-01-07T19:36:34.968Z,55.08
2023-01-07T19:39:05.427Z,45.03
2023-01-07T19:41:35.449Z,53.40
2023-01-07T19:46:37.944Z,45.67
2023-01-07T19:49:08.205Z,44.33
2023-01-07T19:51:40.273Z,42.67
2023-01-07T19:54:11.732Z,64.72
2023-01-07T19:59:12.807Z,42.92
2023-01-07T20:01:42.575Z,58.30
2023-01-07T20:04:12.497Z,44.42
2023-01-07T20:06:41.981Z,41.20
2023-01-07T20:09:12.185Z,46.15
2023-01-07T20:11:42.906Z,42.15
2023-01-07T20:16:43.658Z,47.88
2023-01-07T20:19:14.701Z,46.67
2023-01-07T20:21:44.111Z,44.53
2023-01-07T20:24:14.492Z,57.97
2023-01-07T20:26:43.815Z,50.83
2023-01-07T20:29:15.029Z,53.92
2023-01-07T20:31:44.641Z,54.80
2023-01-07T20:34:14.377Z,51.85
2023-01-07T20:36:43.648Z,59.25
2023-01-07T20:39:13.378Z,56.72
2023-01-07T20:41:44.205Z,51.33
2023-01-07T20:44:15.308Z,55.13
2023-01-07T20:46:44.788Z,55.22
2023-01-07T20:49:16.052Z,53.40
2023-01-07T20:51:45.582Z,66.55
2023-01-07T20:54:15.298Z,64.57
2023-01-07T20:56:45.635Z,55.92
2023-01-07T20:59:17.542Z,52.40
2023-01-07T21:01:47.678Z,58.13
2023-01-07T21:04:17.573Z,53.78
2023-01-07T21:06:46.834Z,63.03
2023-01-07T21:09:16.717Z,58.05
2023-01-07T21:11:47.604Z,66.38
2023-01-07T21:14:18.783Z,49.08
2023-01-07T21:16:48.139Z,56.42
2023-01-07T21:19:17.972Z,53.40
2023-01-07T21:21:48.918Z,54.00
2023-01-07T21:24:18.887Z,54.60
2023-01-07T21:26:51.668Z,52.95
2023-01-07T21:29:22.951Z,48.05
2023-01-07T21:31:53.772Z,59.35
2023-01-07T21:34:23.708Z,52.58
2023-01-07T21:36:53.091Z,45.45
2023-01-07T21:39:23.301Z,55.83
2023-01-07T21:41:52.615Z,56.28
2023-01-07T21:44:23.736Z,62.47
2023-01-07T21:46:53.094Z,43.38
2023-01-07T21:49:24.704Z,46.97
2023-01-07T21:51:54.330Z,49.45
2023-01-07T21:54:24.199Z,56.55
2023-01-07T21:56:53.694Z,44.55
2023-01-07T21:59:25.320Z,49.70
2023-01-07T22:01:55.401Z,54.38
2023-01-07T22:04:25.199Z,41.38
2023-01-07T22:06:54.575Z,47.38
2023-01-07T22:09:25.587Z,57.17
2023-01-07T22:11:55.003Z,47.10
2023-01-07T22:14:26.760Z,54.67
2023-01-07T22:16:56.607Z,43.88
2023-01-07T22:19:26.943Z,51.42
2023-01-07T22:21:56.511Z,46.30
2023-01-07T22:24:26.284Z,43.78
2023-01-07T22:26:55.668Z,42.50
2023-01-07T22:29:27.025Z,32.45
2023-01-07T22:34:26.042Z,38.40
2023-01-07T22:37:01.689Z,39.50
2023-01-07T22:39:34.689Z,34.97
2023-01-07T22:42:08.653Z,35.17
2023-01-07T22:44:44.210Z,38.83
2023-01-07T22:47:16.824Z,40.90
2023-01-07T22:49:47.343Z,37.20
2023-01-07T22:52:17.173Z,36.83
2023-01-07T22:54:47.168Z,33.97
2023-01-07T22:57:17.172Z,39.15
2023-01-07T22:59:48.268Z,39.53
2023-01-07T23:02:17.636Z,40.80
2023-01-07T23:04:47.905Z,44.30
2023-01-07T23:07:17.164Z,38.80
2023-01-07T23:09:47.021Z,43.90
2023-01-07T23:12:16.304Z,50.63
2023-01-07T23:14:47.623Z,44.38
2023-01-07T23:17:16.903Z,58.30
2023-01-07T23:19:46.844Z,48.30
2023-01-07T23:22:16.714Z,66.28
2023-01-07T23:24:46.410Z,74.72
2023-01-07T23:27:15.662Z,63.42
2023-01-07T23:29:45.315Z,47.90
2023-01-07T23:32:16.034Z,61.83
2023-01-07T23:34:45.665Z,50.25
2023-01-07T23:37:14.906Z,53.22
2023-01-07T23:39:44.600Z,44.47
2023-01-07T23:42:14.402Z,75.63
2023-01-07T23:44:44.183Z,45.97
2023-01-07T23:47:14.941Z,59.22
2023-01-07T23:49:44.762Z,56.60
2023-01-07T23:52:14.416Z,70.22
2023-01-07T23:54:44.037Z,67.35
2023-01-07T23:57:13.719Z,64.43
2023-01-07T23:59:44.127Z,62.72
